createdAt,value
2023-05-02T00:01:02.368Z,3.50
2023-05-02T00:03:31.923Z,3.60
2023-05-02T00:06:01.128Z,3.80
2023-05-02T00:08:29.603Z,3.70
2023-05-02T00:10:57.944Z,4.00
2023-05-02T00:13:26.551Z,4.20
2023-05-02T00:15:54.883Z,5.70
2023-05-02T00:18:24.318Z,5.40
2023-05-02T00:20:52.646Z,6.30
2023-05-02T00:23:20.953Z,6.70
2023-05-02T00:25:49.686Z,5.70
2023-05-02T00:28:18.801Z,5.60
2023-05-02T00:30:47.325Z,6.10
2023-05-02T00:33:16.094Z,5.90
2023-05-02T00:35:45.111Z,6.20
2023-05-02T00:38:13.418Z,6.40
2023-05-02T00:40:46.423Z,6.00
2023-05-02T00:43:16.073Z,5.80
2023-05-02T00:45:46.617Z,6.20
2023-05-02T00:48:15.123Z,5.60
2023-05-02T00:50:43.807Z,7.30
2023-05-02T00:53:12.239Z,5.60
2023-05-02T00:55:40.525Z,5.10
2023-05-02T00:58:14.892Z,5.60
2023-05-02T01:01:08.464Z,5.30
2023-05-02T01:03:47.379Z,6.70
2023-05-02T01:06:31.500Z,6.10
2023-05-02T01:09:11.745Z,5.70
2023-05-02T01:11:40.346Z,5.40
2023-05-02T01:14:11.365Z,5.40
2023-05-02T01:16:42.440Z,5.70
2023-05-02T01:19:20.578Z,5.90
2023-05-02T01:21:50.158Z,6.30
2023-05-02T01:24:27.923Z,6.90
2023-05-02T01:27:19.127Z,6.70
2023-05-02T01:29:50.935Z,6.80
2023-05-02T01:32:23.010Z,6.70
2023-05-02T01:34:54.313Z,6.10
2023-05-02T01:37:24.709Z,6.80
2023-05-02T01:39:56.461Z,7.50
2023-05-02T01:42:27.058Z,6.60
2023-05-02T01:44:56.741Z,7.10
2023-05-02T01:47:26.871Z,7.00
2023-05-02T01:49:56.083Z,7.50
2023-05-02T01:52:27.444Z,7.60
2023-05-02T01:54:58.199Z,7.50
2023-05-02T01:57:27.362Z,7.90
2023-05-02T01:59:57.786Z,7.60
2023-05-02T02:02:28.212Z,7.50
2023-05-02T02:04:58.827Z,7.80
2023-05-02T02:07:27.230Z,8.00
2023-05-02T02:09:55.643Z,7.00
2023-05-02T02:12:26.058Z,7.70
2023-05-02T02:14:59.229Z,7.40
2023-05-02T02:17:39.861Z,7.20
2023-05-02T02:20:11.316Z,7.10
2023-05-02T02:22:42.918Z,6.50
2023-05-02T02:25:14.740Z,6.20
2023-05-02T02:27:44.248Z,6.70
2023-05-02T02:30:13.031Z,6.10
2023-05-02T02:32:41.500Z,6.50
2023-05-02T02:35:11.034Z,6.80
2023-05-02T02:37:51.294Z,7.00
2023-05-02T02:40:28.666Z,6.60
2023-05-02T02:43:02.891Z,6.90
2023-05-02T02:45:34.187Z,6.30
2023-05-02T02:48:05.371Z,6.80
2023-05-02T02:50:52.903Z,6.60
2023-05-02T02:53:27.883Z,6.20
2023-05-02T02:56:00.831Z,6.50
2023-05-02T02:58:46.118Z,6.60
2023-05-02T03:01:21.305Z,6.80
2023-05-02T03:03:52.186Z,6.40
2023-05-02T03:06:21.594Z,5.70
2023-05-02T03:08:50.584Z,6.80
2023-05-02T03:11:20.905Z,6.50
2023-05-02T03:13:49.684Z,6.30
2023-05-02T03:16:39.289Z,6.50
2023-05-02T03:19:09.370Z,6.70
2023-05-02T03:21:39.217Z,6.90
2023-05-02T03:24:14.198Z,6.60
2023-05-02T03:26:42.509Z,9.10
2023-05-02T03:29:11.243Z,8.00
2023-05-02T03:31:40.660Z,9.30
2023-05-02T03:34:11.242Z,10.80
2023-05-02T03:36:39.787Z,8.70
2023-05-02T03:39:08.371Z,9.30
2023-05-02T03:41:37.041Z,8.90
2023-05-02T03:44:07.039Z,11.00
2023-05-02T03:46:35.539Z,9.10
2023-05-02T03:49:05.229Z,8.70
2023-05-02T03:51:34.309Z,7.70
2023-05-02T03:54:03.081Z,8.00
2023-05-02T03:56:32.011Z,8.00
2023-05-02T03:59:27.520Z,7.70
2023-05-02T04:01:56.656Z,7.70
2023-05-02T04:04:32.972Z,7.60
2023-05-02T04:07:19.952Z,7.60
2023-05-02T04:09:59.306Z,7.70
2023-05-02T04:12:28.047Z,8.30
2023-05-02T04:14:57.495Z,8.30
2023-05-02T04:17:29.166Z,8.10
2023-05-02T04:19:58.191Z,9.70
2023-05-02T04:22:29.305Z,8.80
2023-05-02T04:25:04.481Z,7.60
2023-05-02T04:27:34.170Z,7.00
2023-05-02T04:30:03.148Z,7.90
2023-05-02T04:32:32.143Z,8.00
2023-05-02T04:35:15.539Z,7.80
2023-05-02T04:37:44.344Z,7.70
2023-05-02T04:40:13.465Z,8.40
2023-05-02T04:42:41.770Z,7.60
2023-05-02T04:45:14.959Z,10.80
2023-05-02T04:47:45.042Z,9.80
2023-05-02T04:50:13.843Z,8.00
2023-05-02T04:52:42.346Z,7.70
2023-05-02T04:55:10.758Z,7.50
2023-05-02T04:57:40.262Z,8.10
2023-05-02T05:00:12.099Z,8.70
2023-05-02T05:02:40.484Z,7.50
2023-05-02T05:05:10.430Z,7.60
2023-05-02T05:07:38.814Z,7.60
2023-05-02T05:10:08.595Z,7.90
2023-05-02T05:12:42.571Z,7.00
2023-05-02T05:15:12.049Z,7.70
2023-05-02T05:20:11.399Z,7.20
2023-05-02T05:22:41.706Z,8.30
2023-05-02T05:27:40.589Z,8.00
2023-05-02T05:30:10.481Z,8.70
2023-05-02T05:32:53.487Z,8.90
2023-05-02T05:35:39.211Z,9.30
2023-05-02T05:38:07.553Z,8.80
2023-05-02T05:40:52.206Z,8.10
2023-05-02T05:43:20.725Z,8.80
2023-05-02T05:45:51.802Z,7.80
2023-05-02T05:48:20.343Z,8.00
2023-05-02T05:50:49.557Z,8.10
2023-05-02T05:53:19.983Z,8.60
2023-05-02T05:55:49.925Z,9.70
2023-05-02T05:58:19.943Z,8.30
2023-05-02T06:00:50.790Z,8.80
2023-05-02T06:03:19.353Z,8.50
2023-05-02T06:05:47.968Z,7.90
2023-05-02T06:08:16.598Z,9.00
2023-05-02T06:10:45.009Z,8.90
2023-05-02T06:13:13.368Z,9.80
2023-05-02T06:16:01.719Z,9.70
2023-05-02T06:18:31.424Z,7.80
2023-05-02T06:21:06.583Z,8.40
2023-05-02T06:23:35.006Z,7.70
2023-05-02T06:26:04.859Z,8.10
2023-05-02T06:28:33.187Z,8.00
2023-05-02T06:31:03.299Z,8.80
2023-05-02T06:33:33.687Z,8.10
2023-05-02T06:36:02.421Z,8.10
2023-05-02T06:38:32.573Z,9.30
2023-05-02T06:41:01.024Z,8.90
2023-05-02T06:43:29.375Z,8.50
2023-05-02T06:45:58.944Z,8.90
2023-05-02T06:48:27.310Z,9.90
2023-05-02T06:50:55.715Z,8.20
2023-05-02T06:53:24.134Z,9.00
2023-05-02T06:55:52.666Z,8.20
2023-05-02T06:58:21.168Z,9.70
2023-05-02T07:01:03.445Z,9.70
2023-05-02T07:03:32.154Z,9.10
2023-05-02T07:06:00.677Z,8.60
2023-05-02T07:08:29.188Z,8.80
2023-05-02T07:10:57.654Z,8.10
2023-05-02T07:13:26.192Z,7.30
2023-05-02T07:15:54.993Z,7.30
2023-05-02T07:18:23.495Z,6.50
2023-05-02T07:20:51.983Z,5.50
2023-05-02T07:23:20.916Z,3.30
2023-05-02T07:25:49.312Z,3.20
2023-05-02T07:28:17.723Z,3.00
2023-05-02T07:30:46.281Z,3.30
2023-05-02T07:33:15.783Z,3.10
2023-05-02T07:35:44.410Z,3.80
2023-05-02T07:38:12.923Z,3.40
2023-05-02T07:40:41.808Z,3.30
2023-05-02T07:43:11.287Z,3.30
2023-05-02T07:45:39.996Z,3.20
2023-05-02T07:48:08.581Z,3.20
2023-05-02T07:50:37.096Z,3.10
2023-05-02T07:53:05.545Z,3.00
2023-05-02T07:55:34.202Z,4.60
2023-05-02T07:58:04.295Z,5.70
2023-05-02T08:00:46.879Z,3.50
2023-05-02T08:03:15.759Z,4.00
2023-05-02T08:05:44.471Z,3.70
2023-05-02T08:08:12.900Z,3.10
2023-05-02T08:10:41.332Z,3.00
2023-05-02T08:13:09.881Z,3.20
2023-05-02T08:15:38.630Z,3.00
2023-05-02T08:18:07.399Z,2.70
2023-05-02T08:20:36.512Z,3.20
2023-05-02T08:23:05.028Z,3.50
2023-05-02T08:25:33.599Z,3.30
2023-05-02T08:28:02.175Z,3.00
2023-05-02T08:30:30.625Z,3.70
2023-05-02T08:32:59.068Z,3.80
2023-05-02T08:35:30.441Z,3.50
2023-05-02T08:37:58.998Z,3.40
2023-05-02T08:40:40.847Z,3.40
2023-05-02T08:43:16.589Z,3.70
2023-05-02T08:45:45.866Z,3.40
2023-05-02T08:48:32.899Z,3.70
2023-05-02T08:51:02.891Z,3.60
2023-05-02T08:53:34.599Z,3.80
2023-05-02T08:56:03.753Z,3.90
2023-05-02T08:58:32.424Z,3.80
2023-05-02T09:01:05.442Z,3.40
2023-05-02T09:03:35.516Z,3.80
2023-05-02T09:06:14.333Z,3.90
2023-05-02T09:08:44.392Z,2.90
2023-05-02T09:11:13.764Z,3.40
2023-05-02T09:13:44.868Z,3.50
2023-05-02T09:16:16.400Z,3.20
2023-05-02T09:18:50.070Z,3.30
2023-05-02T09:21:23.851Z,3.30
2023-05-02T09:23:57.873Z,3.00
2023-05-02T09:26:32.743Z,3.50
2023-05-02T09:29:04.049Z,3.20
2023-05-02T09:31:55.073Z,3.50
2023-05-02T09:34:24.924Z,3.10
2023-05-02T09:36:56.412Z,2.90
2023-05-02T09:39:29.181Z,3.10
2023-05-02T09:41:58.578Z,3.10
2023-05-02T09:44:36.287Z,3.20
2023-05-02T09:47:07.030Z,3.20
2023-05-02T09:49:46.676Z,3.20
2023-05-02T09:52:17.889Z,3.20
2023-05-02T09:54:47.522Z,3.20
2023-05-02T09:57:16.188Z,3.10
2023-05-02T09:59:58.354Z,3.10
2023-05-02T10:02:30.526Z,10.10
2023-05-02T10:05:13.587Z,2.80
2023-05-02T10:07:42.276Z,2.80
2023-05-02T10:10:17.426Z,3.00
2023-05-02T10:12:48.398Z,2.70
2023-05-02T10:15:19.362Z,2.50
2023-05-02T10:17:49.571Z,2.80
2023-05-02T10:20:23.870Z,2.30
2023-05-02T10:22:53.487Z,2.50
2023-05-02T10:25:22.122Z,3.00
2023-05-02T10:27:50.996Z,2.50
2023-05-02T10:30:20.379Z,2.50
2023-05-02T10:32:51.816Z,2.40
2023-05-02T10:35:21.811Z,2.50
2023-05-02T10:37:51.273Z,2.20
2023-05-02T10:40:20.021Z,2.30
2023-05-02T10:42:51.650Z,2.30
2023-05-02T10:45:33.534Z,2.50
2023-05-02T10:48:18.849Z,2.60
2023-05-02T10:50:53.524Z,2.50
2023-05-02T10:53:29.674Z,2.60
2023-05-02T10:56:12.589Z,2.30
2023-05-02T10:58:42.320Z,2.70
2023-05-02T11:01:29.133Z,2.30
2023-05-02T11:04:02.474Z,2.40
2023-05-02T11:06:36.974Z,2.00
2023-05-02T11:09:20.586Z,2.30
2023-05-02T11:11:50.868Z,2.40
2023-05-02T11:14:31.268Z,2.30
2023-05-02T11:19:39.012Z,2.10
2023-05-02T11:22:20.204Z,2.50
2023-05-02T11:24:49.627Z,2.50
2023-05-02T11:27:30.612Z,2.90
2023-05-02T11:30:09.877Z,2.60
2023-05-02T11:32:44.761Z,2.40
2023-05-02T11:35:22.239Z,2.10
2023-05-02T11:37:54.114Z,2.30
2023-05-02T11:40:23.955Z,2.30
2023-05-02T11:42:52.768Z,2.10
2023-05-02T11:45:21.870Z,2.30
2023-05-02T11:47:51.807Z,2.40
2023-05-02T11:50:20.721Z,2.50
2023-05-02T11:52:49.280Z,2.10
2023-05-02T11:55:17.825Z,2.00
2023-05-02T11:57:47.613Z,2.50
2023-05-02T12:00:16.506Z,2.30
2023-05-02T12:02:47.981Z,2.40
2023-05-02T12:05:29.722Z,2.40
2023-05-02T12:07:58.365Z,2.90
2023-05-02T12:10:36.794Z,2.40
2023-05-02T12:13:07.351Z,2.20
2023-05-02T12:15:37.098Z,2.40
2023-05-02T12:18:05.706Z,2.30
2023-05-02T12:20:34.712Z,2.40
2023-05-02T12:23:07.124Z,2.70
2023-05-02T12:25:43.083Z,2.70
2023-05-02T12:28:11.909Z,3.00
2023-05-02T12:30:41.279Z,5.20
2023-05-02T12:33:10.104Z,4.60
2023-05-02T12:35:38.606Z,3.80
2023-05-02T12:38:17.607Z,2.60
2023-05-02T12:40:54.660Z,3.10
2023-05-02T12:43:23.151Z,2.20
2023-05-02T12:46:10.004Z,2.20
2023-05-02T12:48:38.687Z,2.30
2023-05-02T12:51:07.549Z,3.00
2023-05-02T12:53:44.113Z,2.70
2023-05-02T12:56:13.518Z,2.60
2023-05-02T12:58:43.767Z,2.70
2023-05-02T13:01:12.989Z,2.50
2023-05-02T13:03:43.054Z,2.40
2023-05-02T13:06:11.667Z,2.60
2023-05-02T13:08:40.306Z,2.30
2023-05-02T13:11:09.285Z,2.60
2023-05-02T13:13:37.696Z,2.60
2023-05-02T13:16:08.542Z,2.50
2023-05-02T13:18:37.105Z,3.00
2023-05-02T13:21:05.587Z,2.40
2023-05-02T13:23:34.112Z,2.30
2023-05-02T13:26:02.504Z,2.30
2023-05-02T13:28:33.480Z,2.70
2023-05-02T13:31:01.893Z,2.60
2023-05-02T13:33:30.552Z,3.10
2023-05-02T13:35:59.331Z,2.50
2023-05-02T13:38:27.659Z,2.30
2023-05-02T13:40:55.971Z,2.20
2023-05-02T13:43:24.585Z,2.40
2023-05-02T13:45:53.134Z,2.50
2023-05-02T13:48:21.629Z,4.50
2023-05-02T13:50:50.021Z,2.80
2023-05-02T13:53:18.538Z,2.80
2023-05-02T13:55:47.665Z,2.50
2023-05-02T13:58:15.967Z,2.50
2023-05-02T14:00:44.346Z,2.50
2023-05-02T14:03:13.749Z,2.50
2023-05-02T14:05:43.947Z,2.50
2023-05-02T14:08:12.629Z,2.80
2023-05-02T14:10:41.069Z,2.10
2023-05-02T14:13:09.722Z,2.40
2023-05-02T14:15:38.067Z,2.30
2023-05-02T14:18:06.549Z,2.40
2023-05-02T14:20:34.933Z,2.70
2023-05-02T14:23:05.229Z,2.20
2023-05-02T14:25:34.657Z,1.90
2023-05-02T14:28:03.871Z,2.60
2023-05-02T14:30:50.822Z,2.20
2023-05-02T14:33:19.154Z,2.40
2023-05-02T14:35:47.448Z,2.00
2023-05-02T14:38:15.835Z,2.20
2023-05-02T14:40:44.418Z,2.60
2023-05-02T14:43:15.454Z,2.20
2023-05-02T14:45:43.831Z,2.40
2023-05-02T14:48:14.222Z,2.10
2023-05-02T14:53:12.063Z,2.20
2023-05-02T14:55:40.802Z,2.20
2023-05-02T14:58:10.533Z,2.60
2023-05-02T15:00:39.268Z,2.60
2023-05-02T15:03:08.414Z,2.70
2023-05-02T15:08:07.014Z,2.40
2023-05-02T15:10:39.546Z,2.70
2023-05-02T15:13:08.994Z,2.10
2023-05-02T15:15:37.685Z,2.50
2023-05-02T15:18:06.348Z,3.10
2023-05-02T15:20:34.800Z,2.70
2023-05-02T15:23:04.061Z,2.40
2023-05-02T15:25:32.527Z,2.90
2023-05-02T15:28:03.282Z,2.40
2023-05-02T15:30:31.916Z,2.50
2023-05-02T15:33:00.362Z,2.20
2023-05-02T15:35:28.885Z,2.50
2023-05-02T15:37:57.570Z,2.50
2023-05-02T15:40:27.786Z,2.10
2023-05-02T15:42:56.113Z,2.10
2023-05-02T15:45:24.556Z,2.30
2023-05-02T15:47:53.080Z,2.10
2023-05-02T15:50:21.575Z,2.80
2023-05-02T15:52:50.068Z,2.60
2023-05-02T15:55:18.493Z,2.30
2023-05-02T15:57:47.267Z,2.70
2023-05-02T16:00:17.094Z,2.20
2023-05-02T16:02:45.473Z,2.10
2023-05-02T16:05:13.843Z,2.50
2023-05-02T16:07:42.113Z,2.00
2023-05-02T16:10:10.854Z,2.40
2023-05-02T16:12:39.212Z,2.10
2023-05-02T16:15:08.553Z,2.10
2023-05-02T16:17:37.069Z,2.40
2023-05-02T16:20:06.399Z,2.10
2023-05-02T16:22:35.600Z,2.30
2023-05-02T16:25:04.330Z,2.30
2023-05-02T16:27:33.579Z,2.10
2023-05-02T16:30:02.136Z,2.20
2023-05-02T16:32:30.890Z,2.20
2023-05-02T16:34:59.398Z,2.30
2023-05-02T16:37:27.782Z,2.70
2023-05-02T16:39:57.644Z,2.20
2023-05-02T16:42:26.079Z,2.20
2023-05-02T16:44:56.193Z,2.20
2023-05-02T16:47:24.549Z,2.10
2023-05-02T16:49:56.978Z,2.30
2023-05-02T16:52:26.257Z,2.20
2023-05-02T16:54:54.833Z,2.10
2023-05-02T16:57:23.447Z,2.30
2023-05-02T16:59:52.791Z,2.20
2023-05-02T17:02:22.278Z,2.80
2023-05-02T17:05:09.704Z,2.50
2023-05-02T17:07:38.009Z,2.30
2023-05-02T17:10:07.621Z,2.10
2023-05-02T17:12:36.083Z,2.70
2023-05-02T17:15:05.058Z,2.70
2023-05-02T17:17:33.513Z,2.50
2023-05-02T17:20:02.441Z,2.60
2023-05-02T17:22:31.169Z,2.40
2023-05-02T17:24:59.556Z,2.20
2023-05-02T17:27:28.832Z,2.30
2023-05-02T17:29:57.199Z,2.60
2023-05-02T17:32:25.617Z,2.50
2023-05-02T17:34:53.974Z,2.40
2023-05-02T17:37:22.345Z,2.20
2023-05-02T17:39:51.005Z,3.10
2023-05-02T17:42:19.562Z,2.40
2023-05-02T17:44:48.601Z,2.30
2023-05-02T17:47:18.250Z,2.70
2023-05-02T17:49:49.916Z,2.30
2023-05-02T17:52:18.280Z,2.70
2023-05-02T17:54:46.870Z,2.40
2023-05-02T17:57:15.579Z,2.40
2023-05-02T17:59:44.443Z,2.50
2023-05-02T18:02:12.780Z,2.40
2023-05-02T18:04:43.334Z,2.60
2023-05-02T18:07:13.339Z,2.40
2023-05-02T18:09:41.764Z,3.10
2023-05-02T18:12:10.146Z,2.70
2023-05-02T18:14:38.464Z,2.60
2023-05-02T18:17:09.780Z,2.80
2023-05-02T18:19:38.733Z,2.50
2023-05-02T18:22:07.498Z,3.20
2023-05-02T18:24:36.425Z,2.90
2023-05-02T18:27:05.206Z,2.80
2023-05-02T18:29:36.439Z,3.00
2023-05-02T18:32:04.958Z,2.40
2023-05-02T18:34:35.621Z,2.20
2023-05-02T18:37:07.067Z,2.60
2023-05-02T18:39:35.891Z,2.30
2023-05-02T18:42:04.609Z,2.40
2023-05-02T18:44:32.973Z,2.70
2023-05-02T18:47:01.334Z,2.30
2023-05-02T18:49:29.683Z,2.60
2023-05-02T18:51:58.059Z,2.60
2023-05-02T18:54:27.991Z,2.90
2023-05-02T18:56:56.420Z,2.50
2023-05-02T18:59:24.779Z,2.60
2023-05-02T19:01:53.219Z,2.40
2023-05-02T19:04:21.830Z,2.60
2023-05-02T19:06:50.611Z,2.50
2023-05-02T19:09:19.930Z,2.30
2023-05-02T19:11:48.340Z,2.30
2023-05-02T19:14:16.652Z,2.40
2023-05-02T19:16:45.111Z,2.70
2023-05-02T19:19:13.441Z,2.30
2023-05-02T19:22:01.269Z,2.40
2023-05-02T19:24:30.487Z,2.90
2023-05-02T19:27:00.332Z,2.60
2023-05-02T19:29:29.292Z,2.70
2023-05-02T19:31:57.682Z,3.00
2023-05-02T19:34:28.268Z,2.80
2023-05-02T19:36:56.610Z,2.80
2023-05-02T19:39:25.248Z,2.60
2023-05-02T19:41:53.851Z,3.00
2023-05-02T19:44:22.299Z,2.60
2023-05-02T19:46:51.298Z,2.60
2023-05-02T19:49:19.742Z,2.70
2023-05-02T19:51:48.169Z,2.40
2023-05-02T19:54:16.595Z,2.30
2023-05-02T19:56:46.805Z,2.20
2023-05-02T19:59:15.364Z,2.40
2023-05-02T20:01:43.868Z,2.40
2023-05-02T20:04:12.422Z,2.60
2023-05-02T20:06:41.630Z,3.30
2023-05-02T20:09:10.201Z,2.50
2023-05-02T20:11:38.581Z,2.60
2023-05-02T20:14:07.007Z,2.20
2023-05-02T20:16:38.139Z,2.40
2023-05-02T20:19:08.610Z,2.50
2023-05-02T20:21:36.922Z,2.10
2023-05-02T20:24:05.672Z,2.20
2023-05-02T20:26:34.251Z,2.40
2023-05-02T20:29:03.738Z,2.20
2023-05-02T20:31:32.188Z,2.50
2023-05-02T20:34:17.713Z,2.60
2023-05-02T20:36:46.177Z,2.30
2023-05-02T20:39:16.065Z,2.50
2023-05-02T20:42:25.653Z,2.30
2023-05-02T20:44:58.209Z,2.30
2023-05-02T20:50:12.379Z,2.40
2023-05-02T20:52:55.091Z,2.70
2023-05-02T20:55:25.774Z,2.40
2023-05-02T20:57:54.098Z,2.90
2023-05-02T21:00:38.389Z,2.60
2023-05-02T21:03:07.937Z,2.50
2023-05-02T21:05:36.319Z,2.80
2023-05-02T21:08:04.775Z,2.70
2023-05-02T21:10:33.137Z,2.40
2023-05-02T21:13:01.523Z,2.90
2023-05-02T21:15:29.918Z,2.70
2023-05-02T21:18:02.675Z,2.50
2023-05-02T21:20:31.091Z,2.70
2023-05-02T21:22:59.390Z,2.70
2023-05-02T21:25:27.741Z,3.00
2023-05-02T21:27:56.613Z,2.90
2023-05-02T21:30:25.089Z,2.80
2023-05-02T21:32:53.402Z,2.70
2023-05-02T21:35:21.801Z,2.80
2023-05-02T21:37:50.175Z,2.90
2023-05-02T21:40:18.470Z,2.90
2023-05-02T21:42:46.822Z,3.00
2023-05-02T21:45:15.461Z,2.80
2023-05-02T21:47:43.834Z,2.80
2023-05-02T21:50:12.369Z,2.50
2023-05-02T21:52:40.719Z,3.00
2023-05-02T21:55:09.221Z,2.70
2023-05-02T21:57:37.503Z,3.00
2023-05-02T22:00:06.642Z,2.90
2023-05-02T22:02:35.286Z,2.90
2023-05-02T22:05:04.866Z,2.90
2023-05-02T22:07:33.720Z,3.60
2023-05-02T22:10:02.523Z,4.10
2023-05-02T22:12:31.183Z,2.90
2023-05-02T22:14:59.553Z,2.70
2023-05-02T22:17:28.497Z,3.30
2023-05-02T22:19:57.399Z,2.90
2023-05-02T22:22:26.058Z,3.00
2023-05-02T22:24:54.608Z,2.90
2023-05-02T22:27:22.970Z,2.50
2023-05-02T22:29:51.351Z,2.80
2023-05-02T22:32:19.805Z,2.80
2023-05-02T22:35:07.826Z,2.70
2023-05-02T22:37:36.398Z,2.70
2023-05-02T22:40:05.503Z,2.80
2023-05-02T22:42:33.998Z,2.40
2023-05-02T22:45:02.515Z,2.50
2023-05-02T22:47:31.070Z,3.10
2023-05-02T22:49:59.699Z,2.60
2023-05-02T22:52:28.391Z,2.70
2023-05-02T22:55:00.529Z,2.90
2023-05-02T22:57:28.832Z,2.70
2023-05-02T22:59:57.489Z,2.30
2023-05-02T23:02:27.574Z,2.70
2023-05-02T23:04:56.441Z,2.50
2023-05-02T23:07:24.873Z,3.20
2023-05-02T23:09:53.691Z,2.60
2023-05-02T23:12:22.061Z,2.80
2023-05-02T23:14:50.528Z,2.70
2023-05-02T23:17:18.897Z,3.20
2023-05-02T23:19:47.242Z,2.80
2023-05-02T23:22:15.583Z,2.70
2023-05-02T23:24:46.939Z,2.90
2023-05-02T23:27:15.524Z,2.60
2023-05-02T23:29:43.948Z,2.50
2023-05-02T23:32:12.367Z,2.60
2023-05-02T23:34:41.433Z,2.90
2023-05-02T23:37:10.528Z,2.40
2023-05-02T23:39:38.918Z,2.90
2023-05-02T23:42:11.241Z,2.90
2023-05-02T23:44:39.888Z,2.80
2023-05-02T23:47:08.264Z,2.60
2023-05-02T23:49:37.117Z,2.50
2023-05-02T23:52:05.845Z,2.30
2023-05-02T23:54:35.649Z,2.40
2023-05-02T23:57:04.013Z,2.10
2023-05-02T23:59:32.316Z,2.30
